WetterOnline ( http://www.wetteronline.de )

Wetter aktuell Denkendorf

Aktuelles Wetter: Weißenburg (424m)

6-stündlich | Neueste Meldungen
Ortszeit Temperatur Wetter
Mo, 19.02. 19:00 -3.6° C bedeckt
Mo, 19.02. 13:00 -2.6° C bedeckt
Mo, 19.02. 7:00 -10.9° C leicht bewölkt
Mo, 19.02. 1:00 -5.6° C wolkenlos
So, 18.02. 19:00 -0.7° C wolkenlos
So, 18.02. 13:00 -1.8° C bedeckt
So, 18.02. 7:00 -4.8° C Nebel
So, 18.02. 1:00 -2.1° C Schneefall
Ortszeit Temperatur Wetter
Mo, 19.02. 22:30 -5.7° C wolkig
Mo, 19.02. 22:20 -5.7° C wolkig
Mo, 19.02. 22:10 -5.5° C bewölkt
Mo, 19.02. 22:00 -5.4° C wolkig
Mo, 19.02. 21:50 -5.4° C wolkig
Mo, 19.02. 21:40 -4.9° C wolkig
Mo, 19.02. 21:30 -4.7° C bedeckt
Mo, 19.02. 21:00 -4.6° C bewölkt
Mo, 19.02. 20:30 -4.9° C wolkig
Mo, 19.02. 20:00 -3.7° C bedeckt
Mo, 19.02. 19:30 -4.6° C bewölkt
Ortszeit Relative Feuchte Sichtweite
Mo, 19.02. 19:00 89% 8 km
Mo, 19.02. 13:00 79% 13 km
Mo, 19.02. 7:00 94% 6 km
Mo, 19.02. 1:00 98% 8 km
So, 18.02. 19:00 89% 13 km
So, 18.02. 13:00 84% 3.9 km
So, 18.02. 7:00 100% <100 m
So, 18.02. 1:00 97% 5.0 km
Ortszeit Relative Feuchte Sichtweite
Mo, 19.02. 22:30 96% 3.8 km
Mo, 19.02. 22:20 96% -
Mo, 19.02. 22:10 95% -
Mo, 19.02. 22:00 96% 5.0 km
Mo, 19.02. 21:50 96% -
Mo, 19.02. 21:40 97% -
Mo, 19.02. 21:30 96% 5.0 km
Mo, 19.02. 21:00 94% 6 km
Mo, 19.02. 20:30 93% 6 km
Mo, 19.02. 20:00 89% 9 km
Mo, 19.02. 19:30 90% 8 km
Ortszeit Niederschlagsmenge Niederschlagsart
Mo, 19.02. 19:00 0.1 l/m2 in 12 Std. Schnee
Mo, 19.02. 13:00 0.1 l/m2 in 6 Std. Schnee, Sprühregen
Mo, 19.02. 7:00 0.0 l/m2 in 12 Std. -
Mo, 19.02. 1:00 0.0 l/m2 in 6 Std. -
So, 18.02. 19:00 0.0 l/m2 in 12 Std. -
So, 18.02. 13:00 0.0 l/m2 in 6 Std. -
So, 18.02. 7:00 0.9 l/m2 in 12 Std. -
So, 18.02. 1:00 0.9 l/m2 in 6 Std. Schnee
Ortszeit Niederschlagsmenge Niederschlagsart
Mo, 19.02. 22:30 0.0 l/m2 in 1 Std. -
Mo, 19.02. 22:20 keine Meldung -
Mo, 19.02. 22:10 keine Meldung -
Mo, 19.02. 22:00 0.0 l/m2 in 1 Std. -
Mo, 19.02. 21:50 keine Meldung -
Mo, 19.02. 21:40 keine Meldung -
Mo, 19.02. 21:30 0.0 l/m2 in 1 Std. -
Mo, 19.02. 21:00 0.0 l/m2 in 1 Std. -
Mo, 19.02. 20:30 0.0 l/m2 in 1 Std. -
Mo, 19.02. 20:00 0.0 l/m2 in 1 Std. -
Mo, 19.02. 19:30 0.0 l/m2 in 1 Std. -
Ortszeit Stärke Spitze Richtung
km/h Bft. km/h Grad Sektor
Mo, 19.02. 19:00 7 2 14 190° S
Mo, 19.02. 13:00 9 2 20 160° S
Mo, 19.02. 7:00 4 1 14 110° O
Mo, 19.02. 1:00 4 1 18 20° N
So, 18.02. 19:00 4 1 14 100° O
So, 18.02. 13:00 4 1 7 320° NW
So, 18.02. 7:00 0 0 11 - -
So, 18.02. 1:00 4 1 22 10° N
Ortszeit Stärke Spitze Richtung
km/h Bft. km/h Grad Sektor
Mo, 19.02. 22:30 7 2 7 320° NW
Mo, 19.02. 22:20 7 2 - 320° NW
Mo, 19.02. 22:10 7 2 - 280° W
Mo, 19.02. 22:00 6 1 7 230° SW
Mo, 19.02. 21:50 6 1 - 230° SW
Mo, 19.02. 21:40 4 1 - 250° W
Mo, 19.02. 21:30 4 1 7 60° NO
Mo, 19.02. 21:00 2 1 9 70° O
Mo, 19.02. 20:30 4 1 11 100° O
Mo, 19.02. 20:00 11 2 11 310° NW
Mo, 19.02. 19:30 4 1 7 310° NW
Ortszeit Untergrenze Bedeckung Gattung
total tief tief mittel hoch
Mo, 19.02. 19:00 3600 m 8/8 8/8 - - -
Mo, 19.02. 13:00 360 m 8/8 8/8 - - -
Mo, 19.02. 7:00 2100 m 3/8 1/8 - - -
Mo, 19.02. 1:00 - 0/8 0/8 - - -
So, 18.02. 19:00 - 0/8 0/8 - - -
So, 18.02. 13:00 390 m 8/8 8/8 - - -
So, 18.02. 7:00 <30 m 8/8 8/8 - - -
So, 18.02. 1:00 1500 m 7/8 7/8 - - -
Ortszeit Bedeckungsgrad in Achtel und Wolkenuntergrenze
Mo, 19.02. 22:30 1(810m) 8(4200m) 8(4800m)
Mo, 19.02. 22:20 1(810m) 8(4200m) 8(4800m)
Mo, 19.02. 22:10 5(930m) 8(4200m) 8(4800m)
Mo, 19.02. 22:00 1(780m) 8(3900m)
Mo, 19.02. 21:50 1(780m) 1(960m) 8(3900m)
Mo, 19.02. 21:40 1(750m) 2(990m) 8(3900m)
Mo, 19.02. 21:30 8(4200m)
Mo, 19.02. 21:00 5(720m) 8(4500m) 8(5100m)
Mo, 19.02. 20:30 1(570m) 8(4200m) 8(5100m)
Mo, 19.02. 20:00 7(540m) 8(780m) 8(4500m)
Mo, 19.02. 19:30 4(510m) 8(3900m) 8(5700m)
Ortszeit Luftdruck NN (hPa) Tendenz (hPa in 3 Std.)
Mo, 19.02. 19:00 1020 - 0,5
Mo, 19.02. 13:00 1022 - 1,0
Mo, 19.02. 7:00 1025 - 0,8
Mo, 19.02. 1:00 1027 - 1,2
So, 18.02. 19:00 1028 - 0,3
So, 18.02. 13:00 1029 - 0,3
So, 18.02. 7:00 1029 + 0,8
So, 18.02. 1:00 1026 + 1,9
Ortszeit Luftdruck NN (hPa) Tendenz (hPa in 3 Std.)
Mo, 19.02. 22:30 1019 - 0,8
Mo, 19.02. 22:20 1019 keine Meldung
Mo, 19.02. 22:10 1019 keine Meldung
Mo, 19.02. 22:00 1020 - 0,5
Mo, 19.02. 21:50 1020 keine Meldung
Mo, 19.02. 21:40 1019 keine Meldung
Mo, 19.02. 21:30 1019 - 0,5
Mo, 19.02. 21:00 1020 - 0,5
Mo, 19.02. 20:30 1020 - 0,4
Mo, 19.02. 20:00 1020 - 0,3
Mo, 19.02. 19:30 1020 - 0,3
Ortszeit Schneehöhe (cm)
Mo, 19.02. 19:00 4
Mo, 19.02. 13:00 4
Mo, 19.02. 7:00 4
Mo, 19.02. 1:00 4
So, 18.02. 19:00 4
So, 18.02. 13:00 5
So, 18.02. 7:00 6
So, 18.02. 1:00 6
Ortszeit Schneehöhe (cm)
Mo, 19.02. 22:30 4
Mo, 19.02. 22:20 4
Mo, 19.02. 22:10 4
Mo, 19.02. 22:00 4
Mo, 19.02. 21:50 4
Mo, 19.02. 21:40 4
Mo, 19.02. 21:30 4
Mo, 19.02. 21:00 4
Mo, 19.02. 20:30 4
Mo, 19.02. 20:00 4
Mo, 19.02. 19:30 4
Link zu dieser Seite / Seite empfehlen

Das Wetter in ...